Time;durP1;ratioP1;P1;durP2;ratioP2;P2;SDS_P1;SDS_P2;PMS_P1;PMS_P2;Temp;Humidity;BMP_temperature;BMP_pressure;BME280_temperature;BME280_humidity;BME280_pressure;Samples;Min_cycle;Max_cycle;Signal;HPM_P1;HPM_P2
2022/01/08 00:00:17;;;;;;;23.00;14.95;;;5.50;99.90;;;;;;5016730;28;20085;-89
2022/01/08 00:02:45;;;;;;;23.33;14.32;;;5.50;99.90;;;;;;5016335;28;20130;-82
2022/01/08 00:05:15;;;;;;;23.70;14.65;;;5.50;99.90;;;;;;5014812;28;20061;-81
2022/01/08 00:07:42;;;;;;;21.10;13.93;;;5.50;99.90;;;;;;4997684;28;20057;-90
2022/01/08 00:10:10;;;;;;;21.25;13.63;;;5.40;99.90;;;;;;5018168;28;20072;-78
2022/01/08 00:12:37;;;;;;;23.48;14.60;;;5.40;99.90;;;;;;5013769;28;20046;-76
2022/01/08 00:15:11;;;;;;;24.10;15.32;;;5.50;99.90;;;;;;5014518;28;20046;-77
2022/01/08 00:17:44;;;;;;;26.98;16.20;;;5.50;99.90;;;;;;5011832;28;20049;-83
2022/01/08 00:20:14;;;;;;;23.38;15.15;;;5.60;99.90;;;;;;5009460;28;20046;-83
2022/01/08 00:22:44;;;;;;;;;;;5.60;99.90;;;;;;5013576;28;20124;-79
2022/01/08 00:25:17;;;;;;;22.38;13.88;;;5.50;99.90;;;;;;5012820;28;20359;-78
2022/01/08 00:27:46;;;;;;;21.42;13.38;;;5.60;99.90;;;;;;4994793;28;20140;-76
2022/01/08 00:30:14;;;;;;;22.88;14.63;;;5.60;99.90;;;;;;5011671;28;20048;-82
2022/01/08 00:32:41;;;;;;;19.73;13.35;;;5.60;99.90;;;;;;5009922;28;20064;-84
2022/01/08 00:35:10;;;;;;;19.42;13.57;;;5.60;99.90;;;;;;5011035;28;20037;-78
2022/01/08 00:37:38;;;;;;;19.98;13.90;;;5.60;99.90;;;;;;5012024;28;20128;-83
2022/01/08 00:40:07;;;;;;;18.88;13.10;;;5.60;99.90;;;;;;5012664;28;20397;-75
2022/01/08 00:42:36;;;;;;;21.67;14.57;;;5.50;99.90;;;;;;5010934;28;20387;-75
2022/01/08 00:45:04;;;;;;;21.02;13.70;;;5.40;99.90;;;;;;5011694;28;20041;-76
2022/01/08 00:47:31;;;;;;;21.52;14.27;;;5.20;99.90;;;;;;5013307;28;20462;-76
2022/01/08 00:49:59;;;;;;;21.23;13.70;;;5.30;99.90;;;;;;5012551;28;20034;-76
2022/01/08 00:52:26;;;;;;;21.50;14.65;;;5.50;99.90;;;;;;5028328;28;20057;-83
2022/01/08 00:54:54;;;;;;;20.55;14.77;;;5.40;99.90;;;;;;5027881;28;20117;-79
2022/01/08 00:57:24;;;;;;;28.33;15.55;;;5.40;99.90;;;;;;5014331;28;20042;-78
2022/01/08 00:59:51;;;;;;;21.20;14.77;;;5.50;99.90;;;;;;5010753;28;20553;-75
2022/01/08 01:02:21;;;;;;;23.13;15.80;;;5.40;99.90;;;;;;5013170;28;20401;-80
2022/01/08 01:04:48;;;;;;;22.63;15.23;;;5.40;99.90;;;;;;5012295;28;20045;-84
2022/01/08 01:07:18;;;;;;;24.77;15.27;;;5.30;99.90;;;;;;5011076;28;20508;-83
2022/01/08 01:09:46;;;;;;;22.48;15.68;;;5.30;99.90;;;;;;4995091;28;20050;-83
2022/01/08 01:12:14;;;;;;;26.60;15.88;;;5.20;99.90;;;;;;5012533;28;20060;-80
2022/01/08 01:15:02;;;;;;;24.73;15.55;;;5.10;99.90;;;;;;5012801;28;20034;-82
2022/01/08 01:17:30;;;;;;;277.55;129.90;;;5.30;99.90;;;;;;5011304;28;20042;-80
2022/01/08 01:20:00;;;;;;;54.67;35.00;;;5.50;99.90;;;;;;5008449;28;20056;-86
2022/01/08 01:22:38;;;;;;;28.23;19.40;;;5.60;99.90;;;;;;5013224;28;20042;-90
2022/01/08 01:25:07;;;;;;;25.75;16.83;;;5.40;99.90;;;;;;5013265;28;20060;-83
2022/01/08 01:30:10;;;;;;;25.30;16.10;;;5.30;99.90;;;;;;5027332;28;20054;-84
2022/01/08 01:41:17;;;;;;;22.35;14.85;;;5.40;99.90;;;;;;4990675;28;20054;-82
2022/01/08 01:48:53;;;;;;;24.30;15.85;;;5.20;99.90;;;;;;4998807;28;20405;-80
2022/01/08 01:51:23;;;;;;;24.88;15.20;;;5.20;99.90;;;;;;5010937;28;20049;-79
2022/01/08 01:53:51;;;;;;;23.10;15.05;;;5.30;99.90;;;;;;5010774;28;20034;-77
2022/01/08 01:56:20;;;;;;;26.38;15.02;;;5.40;99.90;;;;;;5008686;28;20034;-81
2022/01/08 01:58:48;;;;;;;25.83;15.00;;;5.50;99.90;;;;;;5011392;28;20088;-82
2022/01/08 02:01:15;;;;;;;21.80;14.65;;;5.40;99.90;;;;;;5011867;28;20064;-84
2022/01/08 02:03:42;;;;;;;22.95;14.80;;;5.40;99.90;;;;;;5006050;28;20057;-83
2022/01/08 02:06:10;;;;;;;26.15;16.15;;;5.40;99.90;;;;;;5010899;28;20414;-82
2022/01/08 02:08:38;;;;;;;21.50;15.13;;;5.30;99.90;;;;;;5010051;28;20050;-87
2022/01/08 02:11:07;;;;;;;21.42;14.77;;;5.30;99.90;;;;;;5011128;28;20402;-82
2022/01/08 02:13:35;;;;;;;21.92;14.88;;;5.30;99.90;;;;;;5012527;28;20504;-91
2022/01/08 02:16:05;;;;;;;24.20;15.73;;;5.30;99.90;;;;;;5014995;28;20042;-87
2022/01/08 02:18:34;;;;;;;22.88;14.07;;;5.20;99.90;;;;;;5009433;28;20046;-84
2022/01/08 02:21:02;;;;;;;24.02;15.55;;;5.30;99.90;;;;;;5010627;28;20038;-75
2022/01/08 02:23:30;;;;;;;21.33;15.10;;;5.20;99.90;;;;;;5011050;28;20046;-81
2022/01/08 02:26:06;;;;;;;23.00;15.45;;;5.20;99.90;;;;;;5009807;28;20378;-84
2022/01/08 02:28:35;;;;;;;24.17;15.18;;;5.20;99.90;;;;;;5011047;28;20038;-83
2022/01/08 02:31:03;;;;;;;25.02;15.77;;;5.20;99.90;;;;;;5011511;28;20466;-81
2022/01/08 02:33:31;;;;;;;27.75;15.35;;;5.20;99.90;;;;;;5012635;28;20046;-79
2022/01/08 02:36:03;;;;;;;23.17;15.98;;;5.10;99.90;;;;;;5014926;28;20061;-80
2022/01/08 02:38:30;;;;;;;25.10;15.38;;;5.10;99.90;;;;;;5013520;28;20067;-77
2022/01/08 02:41:02;;;;;;;22.60;15.70;;;5.10;99.90;;;;;;5013666;28;20045;-82
2022/01/08 02:43:33;;;;;;;27.45;16.92;;;5.20;99.90;;;;;;5011263;28;20060;-83
2022/01/08 02:46:01;;;;;;;26.30;15.32;;;5.30;99.90;;;;;;5014223;28;20049;-81
2022/01/08 02:48:28;;;;;;;26.65;17.75;;;5.20;99.90;;;;;;5012784;28;20509;-80
2022/01/08 02:50:55;;;;;;;27.23;17.23;;;5.20;99.90;;;;;;5014328;28;20045;-78
2022/01/08 02:53:23;;;;;;;25.67;16.83;;;5.30;99.90;;;;;;5014072;28;20056;-74
2022/01/08 02:55:51;;;;;;;24.63;17.05;;;5.20;99.90;;;;;;5012349;28;20034;-75
2022/01/08 02:58:37;;;;;;;24.75;17.13;;;5.20;99.90;;;;;;5016080;28;20067;-77
2022/01/08 03:01:05;;;;;;;23.58;16.58;;;5.20;99.90;;;;;;5014722;28;20127;-77
2022/01/08 03:03:32;;;;;;;27.75;17.73;;;5.20;99.90;;;;;;5012308;28;20101;-80
2022/01/08 03:06:00;;;;;;;27.38;17.55;;;5.10;99.90;;;;;;5011902;28;20088;-72
2022/01/08 03:08:27;;;;;;;25.85;16.92;;;5.20;99.90;;;;;;5012556;28;20388;-80
2022/01/08 03:10:54;;;;;;;30.67;18.15;;;5.20;99.90;;;;;;5011976;28;20049;-75
2022/01/08 03:13:21;;;;;;;29.17;17.00;;;5.20;99.90;;;;;;5013917;28;20041;-75
2022/01/08 03:15:49;;;;;;;27.30;16.38;;;5.20;99.90;;;;;;5014478;28;20048;-81
2022/01/08 03:18:16;;;;;;;29.25;16.30;;;5.30;99.90;;;;;;5009267;28;20049;-73
2022/01/08 03:20:53;;;;;;;28.77;16.85;;;5.30;99.90;;;;;;5013316;28;20493;-81
2022/01/08 03:23:21;;;;;;;25.52;16.20;;;5.20;99.90;;;;;;5014190;28;20060;-75
2022/01/08 03:25:48;;;;;;;25.25;16.13;;;5.30;99.90;;;;;;5013406;28;20048;-75
2022/01/08 03:28:15;;;;;;;30.20;17.20;;;5.30;99.90;;;;;;5013397;28;20052;-79
2022/01/08 03:30:43;;;;;;;24.00;16.65;;;5.40;99.90;;;;;;5010740;28;20050;-72
2022/01/08 03:33:10;;;;;;;26.15;16.75;;;5.40;99.90;;;;;;5011706;28;20046;-73
2022/01/08 03:35:37;;;;;;;26.13;16.88;;;5.40;99.90;;;;;;5012265;28;20050;-76
2022/01/08 03:38:04;;;;;;;22.70;16.08;;;5.50;99.90;;;;;;5013755;28;20053;-78
2022/01/08 03:40:32;;;;;;;23.92;16.15;;;5.50;99.90;;;;;;5010655;28;20041;-79
2022/01/08 03:42:59;;;;;;;26.85;16.40;;;5.40;99.90;;;;;;5010389;28;20048;-79
2022/01/08 03:45:26;;;;;;;25.33;16.80;;;5.30;99.90;;;;;;5013560;28;20046;-73
2022/01/08 03:48:06;;;;;;;26.77;16.90;;;5.30;99.90;;;;;;5012866;28;20416;-83
2022/01/08 03:50:33;;;;;;;23.90;16.25;;;5.30;99.90;;;;;;4993532;28;20038;-79
2022/01/08 03:53:01;;;;;;;25.35;16.38;;;5.20;99.90;;;;;;5004153;28;20505;-82
2022/01/08 03:55:28;;;;;;;26.63;16.63;;;5.20;99.90;;;;;;5011387;28;20390;-75
2022/01/08 03:57:55;;;;;;;27.30;16.75;;;5.00;99.90;;;;;;5013338;28;20041;-82
2022/01/08 04:00:23;;;;;;;24.58;15.70;;;5.00;99.90;;;;;;5011768;28;20117;-82
2022/01/08 04:02:52;;;;;;;26.70;15.05;;;5.00;99.90;;;;;;5012880;28;20402;-81
2022/01/08 04:05:20;;;;;;;25.30;15.98;;;5.10;99.90;;;;;;5009977;28;20050;-77
2022/01/08 04:07:47;;;;;;;24.17;15.45;;;5.00;99.90;;;;;;5011336;28;20054;-78
2022/01/08 04:10:14;;;;;;;23.90;16.38;;;5.00;99.90;;;;;;5012589;28;20065;-84
2022/01/08 04:12:46;;;;;;;27.67;14.68;;;5.00;99.90;;;;;;5013425;28;20121;-76
2022/01/08 04:17:53;;;;;;;22.75;14.48;;;5.00;99.90;;;;;;5010179;28;20052;-77
2022/01/08 04:20:21;;;;;;;27.00;16.00;;;4.90;99.90;;;;;;5010544;28;20040;-74
2022/01/08 04:22:50;;;;;;;26.25;15.18;;;4.90;99.90;;;;;;5012890;28;20046;-77
2022/01/08 04:25:23;;;;;;;25.33;15.57;;;4.90;99.90;;;;;;5012930;28;20052;-78
2022/01/08 04:27:50;;;;;;;24.83;15.65;;;5.00;99.90;;;;;;5015114;28;20057;-90
2022/01/08 04:30:18;;;;;;;22.25;15.73;;;4.90;99.90;;;;;;5010640;28;20475;-76
2022/01/08 04:32:45;;;;;;;24.05;16.30;;;4.90;99.90;;;;;;5011716;28;20064;-79
2022/01/08 04:35:13;;;;;;;23.80;16.45;;;5.00;99.90;;;;;;5012896;28;20042;-83
2022/01/08 04:37:41;;;;;;;23.13;16.48;;;4.90;99.90;;;;;;5013166;28;20042;-76
2022/01/08 04:40:08;;;;;;;27.58;17.10;;;4.90;99.90;;;;;;5011203;28;20040;-77
2022/01/08 04:42:36;;;;;;;31.27;18.20;;;4.90;99.90;;;;;;5011662;28;20050;-76
2022/01/08 04:45:04;;;;;;;27.35;16.80;;;4.80;99.90;;;;;;5027826;28;20046;-81
2022/01/08 04:47:31;;;;;;;27.95;16.52;;;4.90;99.90;;;;;;5011025;28;20074;-84
2022/01/08 04:49:58;;;;;;;29.67;17.88;;;4.80;99.90;;;;;;5011641;28;20050;-79
2022/01/08 04:52:26;;;;;;;27.70;16.63;;;4.80;99.90;;;;;;5010190;28;20046;-73
2022/01/08 04:54:53;;;;;;;32.25;19.15;;;4.90;99.90;;;;;;5010915;28;20041;-78
2022/01/08 04:57:20;;;;;;;29.52;17.70;;;4.90;99.90;;;;;;5012361;28;20042;-82
2022/01/08 04:59:47;;;;;;;27.85;17.98;;;4.90;99.90;;;;;;5011429;28;20049;-75
2022/01/08 05:02:15;;;;;;;25.75;16.95;;;4.80;99.90;;;;;;5011929;28;20042;-76
2022/01/08 05:04:42;;;;;;;25.27;17.13;;;4.70;99.90;;;;;;5009236;28;20119;-74
2022/01/08 05:07:11;;;;;;;29.65;17.58;;;4.80;99.90;;;;;;5011552;28;20049;-81
2022/01/08 05:09:38;;;;;;;29.52;17.27;;;4.90;99.90;;;;;;5011134;28;20041;-77
2022/01/08 05:12:05;;;;;;;28.33;17.10;;;4.90;99.90;;;;;;5012303;28;20038;-75
2022/01/08 05:14:33;;;;;;;28.77;17.80;;;5.00;99.90;;;;;;5012028;28;20046;-83
2022/01/08 05:17:01;;;;;;;27.55;16.33;;;4.90;99.90;;;;;;5008283;28;20042;-80
2022/01/08 05:19:41;;;;;;;27.48;16.75;;;4.90;99.90;;;;;;5011111;28;20046;-76
2022/01/08 05:22:10;;;;;;;27.67;17.63;;;4.90;99.90;;;;;;5011595;28;20544;-75
2022/01/08 05:24:37;;;;;;;25.35;17.17;;;4.90;99.90;;;;;;5010706;28;20121;-81
2022/01/08 05:27:06;;;;;;;29.15;17.77;;;4.80;99.90;;;;;;5011803;28;20124;-77
2022/01/08 05:29:35;;;;;;;33.60;18.30;;;4.80;99.90;;;;;;5008787;28;20045;-75
2022/01/08 05:32:02;;;;;;;27.65;17.52;;;4.80;99.90;;;;;;5010761;28;20527;-82
2022/01/08 05:34:30;;;;;;;27.90;16.80;;;4.80;99.90;;;;;;5011395;28;20038;-80
2022/01/08 05:36:57;;;;;;;27.48;16.58;;;4.90;99.90;;;;;;5011320;28;20068;-76
2022/01/08 05:39:24;;;;;;;26.98;17.50;;;4.90;99.90;;;;;;5010131;28;20109;-75
2022/01/08 05:41:51;;;;;;;30.40;16.77;;;5.00;99.90;;;;;;5008441;28;20056;-77
2022/01/08 05:44:19;;;;;;;27.08;17.25;;;4.80;99.90;;;;;;5009921;28;20046;-77
2022/01/08 05:46:47;;;;;;;27.67;17.17;;;4.90;99.90;;;;;;5011543;28;20071;-76
2022/01/08 05:49:15;;;;;;;28.23;17.42;;;5.00;99.90;;;;;;5008987;28;20049;-77
2022/01/08 05:51:43;;;;;;;27.67;17.77;;;5.00;99.90;;;;;;5009531;28;20393;-74
2022/01/08 05:54:10;;;;;;;31.90;18.50;;;5.00;99.90;;;;;;5009751;28;20048;-81
2022/01/08 05:56:37;;;;;;;27.15;16.73;;;5.00;99.90;;;;;;5011236;28;20045;-78
2022/01/08 05:59:04;;;;;;;27.70;17.55;;;4.90;99.90;;;;;;4993633;28;20049;-78
2022/01/08 06:01:34;;;;;;;28.02;17.67;;;4.90;99.90;;;;;;5009747;28;20046;-75
2022/01/08 06:04:02;;;;;;;22.33;15.75;;;5.00;99.90;;;;;;5008203;28;20073;-79
2022/01/08 06:06:29;;;;;;;30.63;17.08;;;5.00;99.90;;;;;;5014708;28;20414;-73
2022/01/08 06:08:57;;;;;;;27.52;18.27;;;4.90;99.90;;;;;;5014525;28;20057;-75
2022/01/08 06:11:24;;;;;;;28.15;17.25;;;4.90;99.90;;;;;;5015283;28;20038;-79
2022/01/08 06:13:52;;;;;;;26.75;17.33;;;4.80;99.90;;;;;;5015305;28;20056;-77
2022/01/08 06:16:19;;;;;;;27.42;17.15;;;4.90;99.90;;;;;;5010849;28;20092;-79
2022/01/08 06:18:46;;;;;;;29.33;17.65;;;4.80;99.90;;;;;;5014434;28;20120;-74
2022/01/08 06:21:13;;;;;;;25.33;17.23;;;4.90;99.90;;;;;;5030069;28;20044;-75
2022/01/08 06:23:41;;;;;;;25.88;15.57;;;4.90;99.90;;;;;;5014700;28;20042;-82
2022/01/08 06:26:09;;;;;;;25.65;16.35;;;4.90;99.90;;;;;;5029912;28;20042;-81
2022/01/08 06:28:37;;;;;;;33.08;17.75;;;5.00;99.90;;;;;;5027900;28;20058;-81
2022/01/08 06:31:04;;;;;;;29.38;17.55;;;5.00;99.90;;;;;;5014440;28;20049;-82
2022/01/08 06:33:31;;;;;;;30.25;16.50;;;5.00;99.90;;;;;;5014155;28;20049;-78
2022/01/08 06:35:58;;;;;;;28.10;17.63;;;5.00;99.90;;;;;;5015455;28;20405;-83
2022/01/08 06:38:26;;;;;;;26.30;17.58;;;4.90;99.90;;;;;;5013823;28;20614;-84
2022/01/08 06:40:53;;;;;;;26.92;17.92;;;4.90;99.90;;;;;;5012412;28;20045;-81
2022/01/08 06:43:20;;;;;;;29.58;18.00;;;4.90;99.90;;;;;;5014808;28;20057;-78
2022/01/08 06:45:47;;;;;;;29.52;17.85;;;5.00;99.90;;;;;;5014142;28;20133;-80
2022/01/08 06:48:15;;;;;;;26.75;18.50;;;5.00;99.90;;;;;;5012966;28;20494;-78
2022/01/08 06:50:42;;;;;;;28.27;17.50;;;5.00;99.90;;;;;;5012877;28;20042;-76
2022/01/08 06:53:09;;;;;;;27.95;18.02;;;4.90;99.90;;;;;;5010993;28;20413;-78
2022/01/08 06:55:37;;;;;;;33.63;18.88;;;5.00;99.90;;;;;;5014465;28;20057;-79
2022/01/08 06:58:04;;;;;;;36.92;19.10;;;5.00;99.90;;;;;;5029735;28;20042;-84
2022/01/08 07:00:31;;;;;;;31.77;19.95;;;5.00;99.90;;;;;;5012493;28;20152;-82
2022/01/08 07:02:59;;;;;;;31.88;20.15;;;5.00;99.90;;;;;;5012017;28;20050;-83
2022/01/08 07:05:27;;;;;;;32.10;19.58;;;5.00;99.90;;;;;;5015704;28;20056;-86
2022/01/08 07:07:54;;;;;;;33.25;20.27;;;4.90;99.90;;;;;;5021165;28;20042;-81
2022/01/08 07:10:21;;;;;;;34.33;20.05;;;4.80;99.90;;;;;;5016448;28;20042;-77
2022/01/08 07:12:49;;;;;;;32.95;20.13;;;4.80;99.90;;;;;;5029265;28;20080;-81
2022/01/08 07:15:16;;;;;;;33.47;20.88;;;4.90;99.90;;;;;;5010751;28;20117;-80
2022/01/08 07:17:43;;;;;;;38.08;21.30;;;5.00;99.90;;;;;;5013949;28;20087;-79
2022/01/08 07:20:11;;;;;;;42.30;22.77;;;5.00;99.90;;;;;;5013379;28;20049;-78
2022/01/08 07:22:38;;;;;;;35.47;22.08;;;5.10;99.90;;;;;;5012225;28;20034;-78
2022/01/08 07:25:07;;;;;;;34.75;22.27;;;5.10;99.90;;;;;;5013819;28;20383;-81
2022/01/08 07:27:36;;;;;;;34.55;21.38;;;5.30;99.90;;;;;;5009868;28;20417;-80
2022/01/08 07:30:05;;;;;;;35.17;20.67;;;5.40;99.90;;;;;;5013052;28;20046;-83
2022/01/08 07:32:32;;;;;;;32.42;20.42;;;5.40;99.90;;;;;;5014122;28;20062;-80
2022/01/08 07:35:00;;;;;;;35.15;20.63;;;5.40;99.90;;;;;;5013314;28;20050;-81
2022/01/08 07:37:27;;;;;;;32.83;19.02;;;5.50;99.90;;;;;;5013027;28;20494;-82
2022/01/08 07:39:54;;;;;;;35.08;21.42;;;5.50;99.90;;;;;;5010547;28;20383;-83
2022/01/08 07:42:21;;;;;;;32.83;20.25;;;5.40;99.90;;;;;;5013800;28;20038;-80
2022/01/08 07:44:48;;;;;;;30.35;20.17;;;5.40;99.90;;;;;;5012951;28;20046;-80
2022/01/08 07:47:17;;;;;;;41.22;20.35;;;5.30;99.90;;;;;;5013426;28;20038;-81
2022/01/08 07:49:44;;;;;;;32.08;19.90;;;5.30;99.90;;;;;;5010403;28;20049;-78
2022/01/08 07:52:11;;;;;;;32.10;20.17;;;5.30;99.90;;;;;;5010945;28;20038;-79
2022/01/08 07:54:39;;;;;;;35.97;21.65;;;5.30;99.90;;;;;;5012870;28;20132;-79
2022/01/08 07:57:06;;;;;;;35.55;20.63;;;5.30;99.90;;;;;;5012494;28;20119;-73
2022/01/08 07:59:34;;;;;;;30.55;20.67;;;5.40;99.90;;;;;;5012178;28;20046;-80
2022/01/08 08:02:01;;;;;;;31.50;19.23;;;5.40;99.90;;;;;;4994757;28;20060;-80
2022/01/08 08:04:28;;;;;;;31.02;20.63;;;5.50;99.90;;;;;;5009484;28;20046;-78
2022/01/08 08:06:56;;;;;;;32.30;20.20;;;5.50;99.90;;;;;;5027952;28;20038;-75
2022/01/08 08:09:23;;;;;;;33.17;22.02;;;5.50;99.90;;;;;;5027476;28;20053;-77
2022/01/08 08:11:50;;;;;;;34.08;21.85;;;5.60;99.90;;;;;;5028562;28;20129;-80
2022/01/08 08:14:18;;;;;;;38.05;22.38;;;5.50;99.90;;;;;;5010695;28;20441;-84
2022/01/08 08:16:45;;;;;;;33.33;20.73;;;5.50;99.90;;;;;;5028032;28;20121;-79
2022/01/08 08:19:12;;;;;;;36.65;23.52;;;5.50;99.90;;;;;;5012370;28;20057;-75
2022/01/08 08:21:40;;;;;;;39.03;22.10;;;5.60;99.90;;;;;;5012940;28;20037;-87
2022/01/08 08:24:07;;;;;;;36.00;21.98;;;5.80;99.90;;;;;;5013215;28;20069;-84
2022/01/08 08:26:35;;;;;;;32.70;21.23;;;5.90;99.90;;;;;;5011020;28;20052;-75
2022/01/08 08:29:03;;;;;;;32.38;20.92;;;6.00;99.90;;;;;;5011035;28;20060;-83
2022/01/08 08:31:30;;;;;;;33.47;21.00;;;5.90;99.90;;;;;;5014891;28;20045;-83
2022/01/08 08:33:58;;;;;;;35.60;21.85;;;5.90;99.90;;;;;;5030566;28;20405;-83
2022/01/08 08:36:25;;;;;;;32.70;21.98;;;5.90;99.90;;;;;;5014968;28;20048;-90
2022/01/08 08:38:52;;;;;;;35.30;20.33;;;5.90;99.90;;;;;;5014640;28;20042;-85
2022/01/08 08:41:20;;;;;;;34.05;21.40;;;5.90;99.90;;;;;;5016104;28;20056;-76
2022/01/08 08:43:47;;;;;;;37.35;21.23;;;6.00;99.90;;;;;;5013854;28;20125;-85
2022/01/08 08:46:15;;;;;;;33.88;20.85;;;6.00;99.90;;;;;;5015717;28;20042;-85
2022/01/08 08:48:43;;;;;;;33.58;21.33;;;6.10;99.90;;;;;;5012030;28;20048;-80
2022/01/08 08:51:10;;;;;;;32.40;21.70;;;6.00;99.90;;;;;;5013245;28;20044;-85
2022/01/08 08:53:38;;;;;;;32.72;21.55;;;5.90;99.90;;;;;;5013630;28;20054;-84
2022/01/08 08:56:05;;;;;;;33.58;21.75;;;5.90;99.90;;;;;;5011890;28;20065;-79
2022/01/08 08:58:33;;;;;;;32.83;20.55;;;5.80;99.90;;;;;;5011876;28;20447;-81
2022/01/08 09:01:00;;;;;;;36.80;21.63;;;5.90;99.90;;;;;;5010374;28;20133;-79
2022/01/08 09:03:27;;;;;;;35.58;21.52;;;6.10;99.90;;;;;;5012696;28;20450;-77
2022/01/08 09:05:55;;;;;;;41.95;24.05;;;6.00;99.90;;;;;;5011868;28;20054;-77
2022/01/08 09:08:22;;;;;;;40.80;25.15;;;6.10;99.90;;;;;;5012490;28;20038;-82
2022/01/08 09:10:49;;;;;;;51.58;28.73;;;6.10;99.90;;;;;;5012112;28;20405;-80
2022/01/08 09:13:17;;;;;;;35.60;24.08;;;6.20;99.90;;;;;;4994771;28;20449;-81
2022/01/08 09:15:44;;;;;;;33.65;22.27;;;6.10;99.90;;;;;;5011728;28;20049;-80
2022/01/08 09:18:14;;;;;;;34.65;21.08;;;6.10;99.90;;;;;;5012172;28;20038;-82
2022/01/08 09:20:46;;;;;;;41.58;26.70;;;6.20;99.90;;;;;;5012096;28;20049;-75
2022/01/08 09:23:15;;;;;;;59.40;35.13;;;6.20;99.90;;;;;;5011126;28;20052;-74
2022/01/08 09:25:43;;;;;;;103.50;55.17;;;6.60;99.90;;;;;;5011743;28;20386;-78
2022/01/08 09:28:10;;;;;;;66.72;41.00;;;6.80;99.90;;;;;;5011572;28;20037;-74
2022/01/08 09:30:37;;;;;;;134.43;66.90;;;6.70;99.90;;;;;;5011373;28;20046;-80
2022/01/08 09:33:06;;;;;;;49.10;30.33;;;7.00;99.90;;;;;;4994666;28;20453;-84
2022/01/08 09:35:33;;;;;;;40.55;25.77;;;7.00;99.90;;;;;;5010302;28;20049;-79
2022/01/08 09:38:01;;;;;;;42.35;26.38;;;6.80;99.90;;;;;;5011611;28;20049;-82
2022/01/08 09:40:28;;;;;;;42.08;23.85;;;6.70;99.90;;;;;;5010770;28;20045;-81
2022/01/08 09:42:56;;;;;;;40.03;25.92;;;6.60;99.90;;;;;;5009843;28;20050;-79
2022/01/08 09:45:24;;;;;;;40.22;24.35;;;6.60;99.90;;;;;;5011426;28;20046;-79
2022/01/08 09:47:52;;;;;;;44.53;27.00;;;6.80;99.90;;;;;;5010410;28;20060;-80
2022/01/08 09:50:19;;;;;;;39.65;24.88;;;6.90;99.90;;;;;;5010546;28;20398;-80
2022/01/08 09:52:47;;;;;;;41.90;24.27;;;7.00;99.90;;;;;;5011118;28;20046;-78
2022/01/08 09:55:14;;;;;;;37.05;24.60;;;7.00;99.90;;;;;;5010122;28;20051;-77
2022/01/08 09:57:41;;;;;;;43.08;24.95;;;7.00;99.90;;;;;;5009996;28;20056;-79
2022/01/08 10:00:15;;;;;;;42.42;25.38;;;7.00;99.90;;;;;;5011339;28;20041;-80
2022/01/08 10:02:44;;;;;;;42.17;26.10;;;7.00;99.90;;;;;;5011407;28;20038;-79
2022/01/08 10:05:17;;;;;;;41.22;26.70;;;6.90;99.90;;;;;;5009413;28;20046;-79
2022/01/08 10:08:00;;;;;;;42.10;26.58;;;7.00;99.90;;;;;;5011306;28;20065;-81
2022/01/08 10:10:27;;;;;;;41.47;26.15;;;7.20;99.90;;;;;;5010084;28;20050;-77
2022/01/08 10:13:00;;;;;;;37.72;25.13;;;7.20;99.90;;;;;;5011311;28;20061;-78
2022/01/08 10:18:33;;;;;;;41.22;26.52;;;7.30;99.90;;;;;;5011236;28;20048;-78
2022/01/08 10:21:14;;;;;;;41.05;27.35;;;7.20;99.90;;;;;;5011290;28;20064;-76
2022/01/08 10:23:51;;;;;;;47.40;29.65;;;7.20;99.90;;;;;;4993966;28;20070;-81
2022/01/08 10:26:31;;;;;;;41.38;27.75;;;7.00;99.90;;;;;;5010295;28;20108;-84
2022/01/08 10:29:00;;;;;;;180.55;97.75;;;7.00;99.90;;;;;;5011826;28;20105;-87
2022/01/08 10:31:29;;;;;;;131.48;79.25;;;7.10;99.90;;;;;;5011882;28;20593;-77
2022/01/08 10:34:02;;;;;;;51.38;36.05;;;7.30;99.90;;;;;;5027890;28;20493;-87
2022/01/08 10:36:35;;;;;;;46.05;28.95;;;7.30;99.90;;;;;;5016576;28;20498;-89
2022/01/08 10:39:08;;;;;;;42.70;27.55;;;7.20;99.90;;;;;;5012950;28;20049;-85
2022/01/08 10:41:43;;;;;;;41.80;27.58;;;7.30;99.90;;;;;;5011946;28;20421;-89
2022/01/08 10:44:18;;;;;;;47.30;28.65;;;7.40;99.90;;;;;;5010396;28;20141;-88
2022/01/08 10:46:51;;;;;;;43.22;27.65;;;7.30;99.90;;;;;;5014190;28;20048;-80
2022/01/08 10:49:32;;;;;;;41.63;27.55;;;7.30;99.90;;;;;;5027477;28;20045;-89
2022/01/08 10:52:03;;;;;;;50.47;28.08;;;7.10;99.90;;;;;;4997687;28;20037;-81
2022/01/08 10:54:32;;;;;;;45.55;28.58;;;7.10;99.90;;;;;;5029629;28;20053;-87
2022/01/08 10:57:03;;;;;;;48.42;29.55;;;7.10;99.90;;;;;;5019050;28;20030;-95
2022/01/08 10:59:36;;;;;;;48.78;29.35;;;7.00;99.90;;;;;;5032955;28;20061;-79
2022/01/08 11:02:08;;;;;;;46.63;27.90;;;7.10;99.90;;;;;;5018732;28;20461;-87
2022/01/08 11:04:39;;;;;;;45.08;28.55;;;7.00;99.90;;;;;;5014726;28;20045;-85
2022/01/08 11:07:14;;;;;;;52.50;30.02;;;7.20;99.90;;;;;;5014135;28;20048;-84
2022/01/08 11:09:43;;;;;;;46.55;30.42;;;7.00;99.90;;;;;;5013178;28;20506;-80
2022/01/08 11:12:27;;;;;;;42.13;29.88;;;7.00;99.90;;;;;;5013808;28;20134;-87
2022/01/08 11:15:22;;;;;;;183.20;100.03;;;6.90;99.90;;;;;;5014278;28;20042;-79
2022/01/08 11:18:01;;;;;;;106.68;65.88;;;7.00;99.90;;;;;;5013705;28;20044;-83
2022/01/08 11:20:49;;;;;;;63.35;39.13;;;7.20;99.90;;;;;;5015910;28;20048;-86
2022/01/08 11:23:22;;;;;;;47.30;32.00;;;7.30;99.90;;;;;;5015462;28;20049;-86
2022/01/08 11:25:51;;;;;;;46.97;31.15;;;7.20;99.90;;;;;;5014980;28;20048;-82
2022/01/08 11:28:19;;;;;;;47.42;30.35;;;7.30;99.90;;;;;;5013870;28;20045;-79
2022/01/08 11:31:00;;;;;;;51.88;31.10;;;7.30;99.90;;;;;;5012634;28;20795;-76
2022/01/08 11:33:32;;;;;;;47.63;29.00;;;7.30;99.90;;;;;;5012185;28;20765;-82
2022/01/08 11:35:59;;;;;;;46.53;29.48;;;7.30;99.90;;;;;;5012572;28;20057;-77
2022/01/08 11:38:28;;;;;;;47.50;29.25;;;7.10;99.90;;;;;;5012646;28;20061;-88
2022/01/08 11:40:58;;;;;;;115.35;62.25;;;7.00;99.90;;;;;;5013976;28;20468;-77
2022/01/08 11:43:28;;;;;;;141.52;78.43;;;7.30;99.90;;;;;;5012569;28;20439;-82
2022/01/08 11:46:07;;;;;;;54.63;35.55;;;7.60;99.90;;;;;;5014284;28;20038;-82
2022/01/08 11:48:43;;;;;;;51.42;31.05;;;7.90;99.90;;;;;;5013954;28;20048;-86
2022/01/08 11:51:27;;;;;;;46.97;30.15;;;7.30;99.90;;;;;;5015387;28;20048;-84
2022/01/08 11:53:59;;;;;;;48.67;31.42;;;7.00;99.90;;;;;;4998345;28;20100;-86
2022/01/08 11:56:29;;;;;;;50.15;31.08;;;7.20;99.90;;;;;;4998520;28;20410;-88
2022/01/08 11:59:07;;;;;;;56.60;31.23;;;7.10;99.90;;;;;;5015548;28;20045;-87
2022/01/08 12:01:36;;;;;;;48.30;30.33;;;7.20;99.90;;;;;;5015978;28;20050;-89
2022/01/08 12:04:04;;;;;;;48.42;30.77;;;7.10;99.90;;;;;;5014299;28;20052;-86
2022/01/08 12:06:38;;;;;;;52.30;31.48;;;7.10;99.90;;;;;;5012489;28;20077;-81
2022/01/08 12:09:28;;;;;;;50.50;31.17;;;7.20;99.90;;;;;;5013476;28;20052;-85
2022/01/08 12:12:03;;;;;;;53.20;29.92;;;7.10;99.90;;;;;;5009847;28;20133;-80
2022/01/08 12:14:30;;;;;;;43.13;29.05;;;7.20;99.90;;;;;;5012823;28;20482;-81
2022/01/08 12:17:12;;;;;;;51.65;30.92;;;7.20;99.90;;;;;;5013191;28;20088;-84
2022/01/08 12:19:50;;;;;;;213.38;105.60;;;7.30;99.90;;;;;;5013034;28;20502;-82
2022/01/08 12:22:20;;;;;;;107.47;61.67;;;7.80;99.90;;;;;;5012761;28;20053;-83
2022/01/08 12:25:00;;;;;;;55.35;35.78;;;8.00;99.90;;;;;;5012411;28;20054;-84
2022/01/08 12:27:46;;;;;;;52.33;32.15;;;7.80;99.90;;;;;;5013363;28;20105;-85
2022/01/08 12:30:19;;;;;;;42.42;28.48;;;7.60;99.90;;;;;;5013306;28;20386;-89
2022/01/08 12:32:50;;;;;;;38.00;28.38;;;7.70;99.90;;;;;;5011510;28;20077;-83
2022/01/08 12:35:23;;;;;;;48.72;30.55;;;7.80;99.90;;;;;;4995262;28;20046;-86
2022/01/08 12:37:52;;;;;;;46.10;29.33;;;7.90;99.90;;;;;;5012557;28;20122;-83
2022/01/08 12:40:37;;;;;;;49.17;28.98;;;7.80;99.90;;;;;;5012657;28;20124;-81
2022/01/08 12:43:23;;;;;;;43.92;27.95;;;7.70;99.90;;;;;;5012371;28;20450;-83
2022/01/08 12:45:52;;;;;;;50.35;27.30;;;7.70;99.90;;;;;;5012773;28;20440;-86
2022/01/08 12:48:20;;;;;;;43.47;28.52;;;7.60;99.90;;;;;;5012554;28;20498;-79
2022/01/08 12:50:48;;;;;;;42.22;26.67;;;7.60;99.90;;;;;;5012887;28;20551;-82
2022/01/08 12:53:30;;;;;;;43.28;28.25;;;7.60;99.90;;;;;;5011255;28;20038;-83
2022/01/08 12:55:57;;;;;;;46.20;28.08;;;7.60;99.90;;;;;;5012812;28;20050;-82
2022/01/08 12:58:35;;;;;;;45.03;28.15;;;7.50;99.90;;;;;;5012414;28;20050;-82
2022/01/08 13:01:10;;;;;;;44.10;26.45;;;7.50;99.90;;;;;;5012432;28;20461;-78
2022/01/08 13:03:39;;;;;;;42.67;25.50;;;7.50;99.90;;;;;;5011107;28;20088;-81
2022/01/08 13:06:28;;;;;;;45.55;27.80;;;7.60;99.90;;;;;;4994525;28;20042;-80
2022/01/08 13:08:56;;;;;;;46.45;28.80;;;7.40;99.90;;;;;;5010879;28;20069;-80